createdAt,value
2019-05-17T00:04:16.619Z,7.01
2019-05-17T00:09:20.791Z,6.79
2019-05-17T00:14:26.997Z,6.66
2019-05-17T00:19:30.897Z,6.68
2019-05-17T00:24:36.942Z,6.58
2019-05-17T00:29:40.647Z,6.69
2019-05-17T00:34:46.868Z,6.69
2019-05-17T00:39:50.354Z,6.75
2019-05-17T00:44:56.453Z,6.45
2019-05-17T00:50:01.003Z,6.35
2019-05-17T00:55:06.735Z,6.18
2019-05-17T01:00:11.326Z,6.19
2019-05-17T01:05:17.081Z,6.33
2019-05-17T01:10:21.410Z,6.40
2019-05-17T01:15:27.310Z,6.43
2019-05-17T01:20:31.442Z,6.41
2019-05-17T01:25:36.738Z,6.27
2019-05-17T01:30:40.940Z,6.18
2019-05-17T01:35:46.615Z,6.29
2019-05-17T01:40:50.735Z,6.07
2019-05-17T01:45:57.274Z,6.16
2019-05-17T01:51:00.820Z,6.03
2019-05-17T01:56:06.350Z,6.03
2019-05-17T02:01:10.859Z,5.92
2019-05-17T02:06:16.548Z,5.94
2019-05-17T02:11:21.096Z,5.84
2019-05-17T02:16:26.772Z,5.65
2019-05-17T02:21:30.874Z,5.80
2019-05-17T02:26:37.293Z,5.79
2019-05-17T02:31:43.468Z,5.72
2019-05-17T02:36:46.685Z,5.94
2019-05-17T02:41:53.342Z,6.05
2019-05-17T02:46:56.752Z,6.03
2019-05-17T02:52:03.270Z,5.88
2019-05-17T02:57:07.053Z,5.78
2019-05-17T03:02:12.729Z,5.83
2019-05-17T03:07:17.008Z,5.77
2019-05-17T03:12:23.678Z,5.67
2019-05-17T03:17:27.069Z,5.69
2019-05-17T03:22:33.240Z,5.89
2019-05-17T03:27:36.872Z,6.09
2019-05-17T03:32:47.202Z,5.98
2019-05-17T03:37:47.844Z,6.25
2019-05-17T03:42:53.890Z,6.29
2019-05-17T03:47:58.263Z,6.21
2019-05-17T03:53:02.609Z,6.38
2019-05-17T03:58:06.669Z,6.46
2019-05-17T04:03:13.629Z,6.50
2019-05-17T04:08:16.777Z,6.60
2019-05-17T04:13:23.453Z,6.94
2019-05-17T04:18:27.862Z,7.09
2019-05-17T04:23:33.979Z,7.08
2019-05-17T04:28:38.268Z,6.91
2019-05-17T04:33:42.984Z,7.64
2019-05-17T04:38:47.362Z,7.92
2019-05-17T04:43:53.106Z,8.50
2019-05-17T04:48:57.377Z,9.76
2019-05-17T04:54:03.318Z,9.76
2019-05-17T04:59:07.725Z,10.31
2019-05-17T05:04:15.043Z,12.20
2019-05-17T05:09:17.586Z,12.51
2019-05-17T05:14:23.345Z,12.63
2019-05-17T05:19:27.875Z,12.90
2019-05-17T05:24:32.410Z,14.12
2019-05-17T05:29:36.718Z,15.46
2019-05-17T05:34:42.973Z,17.61
2019-05-17T05:39:47.213Z,19.49
2019-05-17T05:44:52.262Z,18.04
2019-05-17T05:49:57.343Z,16.70
2019-05-17T05:55:02.050Z,14.37
2019-05-17T06:00:07.317Z,13.79
2019-05-17T06:05:14.926Z,12.93
2019-05-17T06:10:18.471Z,13.60
2019-05-17T06:15:22.799Z,13.79
2019-05-17T06:20:26.902Z,13.47
2019-05-17T06:25:34.209Z,13.17
2019-05-17T06:30:36.727Z,12.91
2019-05-17T06:35:42.245Z,14.90
2019-05-17T06:40:46.857Z,16.52
2019-05-17T06:45:52.185Z,16.41
2019-05-17T06:50:56.732Z,16.38
2019-05-17T06:56:02.622Z,17.00
2019-05-17T07:01:06.555Z,18.24
2019-05-17T07:06:12.185Z,18.51
2019-05-17T07:11:16.287Z,22.19
2019-05-17T07:16:20.310Z,22.70
2019-05-17T07:21:24.344Z,21.97
2019-05-17T07:26:30.228Z,24.85
2019-05-17T07:31:34.505Z,26.45
2019-05-17T07:36:39.733Z,26.01
2019-05-17T07:41:43.997Z,27.49
2019-05-17T07:46:51.745Z,27.21
2019-05-17T07:51:54.257Z,25.69
2019-05-17T07:57:00.269Z,28.58
2019-05-17T08:02:04.265Z,25.96
2019-05-17T08:07:10.755Z,22.97
2019-05-17T08:12:14.117Z,21.77
2019-05-17T08:17:19.820Z,22.39
2019-05-17T08:22:24.168Z,22.69
2019-05-17T08:27:29.716Z,23.75
2019-05-17T08:32:34.219Z,23.57
2019-05-17T08:37:41.878Z,24.38
2019-05-17T08:42:44.382Z,22.43
2019-05-17T08:47:50.079Z,23.33
2019-05-17T08:52:54.223Z,23.98
2019-05-17T08:58:00.863Z,24.36
2019-05-17T09:03:04.808Z,22.40
2019-05-17T09:08:10.455Z,23.58
2019-05-17T09:13:15.097Z,23.25
2019-05-17T09:18:21.551Z,26.30
2019-05-17T09:23:25.592Z,26.84
2019-05-17T09:28:30.174Z,23.35
2019-05-17T09:33:35.523Z,22.14
2019-05-17T09:38:40.413Z,22.33
2019-05-17T09:43:44.830Z,21.68
2019-05-17T09:48:50.558Z,22.76
2019-05-17T09:53:55.618Z,21.07
2019-05-17T09:59:00.393Z,19.56
2019-05-17T10:04:04.542Z,18.48
2019-05-17T10:09:09.606Z,18.96
2019-05-17T10:14:24.601Z,21.33
2019-05-17T10:19:21.892Z,21.44
2019-05-17T10:24:36.002Z,20.89
2019-05-17T10:29:31.114Z,21.11
2019-05-17T10:34:35.763Z,20.34
2019-05-17T10:39:41.721Z,21.05
2019-05-17T10:44:47.852Z,20.85
2019-05-17T10:49:52.678Z,20.99
2019-05-17T10:54:56.798Z,20.63
2019-05-17T11:00:01.306Z,20.19
2019-05-17T11:05:05.450Z,21.02
2019-05-17T11:10:11.775Z,20.89
2019-05-17T11:15:15.711Z,21.02
2019-05-17T11:20:20.605Z,20.86
2019-05-17T11:25:24.615Z,20.40
2019-05-17T11:30:28.732Z,19.69
2019-05-17T11:35:32.730Z,19.45
2019-05-17T11:40:37.111Z,19.80
2019-05-17T11:45:41.631Z,18.96
2019-05-17T11:50:45.672Z,18.54
2019-05-17T11:55:49.710Z,20.15
2019-05-17T12:00:53.737Z,21.45
2019-05-17T12:05:58.021Z,21.74
2019-05-17T12:11:02.226Z,20.94
2019-05-17T12:16:06.687Z,20.42
2019-05-17T12:21:10.731Z,21.06
2019-05-17T12:26:14.836Z,21.45
2019-05-17T12:31:19.143Z,20.96
2019-05-17T12:36:23.519Z,21.42
2019-05-17T12:41:28.295Z,21.94
2019-05-17T12:46:32.434Z,22.72
2019-05-17T12:51:37.182Z,22.92
2019-05-17T12:56:41.495Z,22.73
2019-05-17T13:01:45.963Z,21.50
2019-05-17T13:06:50.091Z,21.43
2019-05-17T13:11:54.505Z,22.31
2019-05-17T13:16:59.023Z,22.42
2019-05-17T13:22:03.176Z,23.37
2019-05-17T13:27:07.562Z,23.11
2019-05-17T13:32:11.679Z,22.76
2019-05-17T13:37:15.676Z,22.63
2019-05-17T13:42:19.741Z,22.72
2019-05-17T13:47:23.788Z,23.18
2019-05-17T13:52:27.810Z,22.52
2019-05-17T13:57:32.129Z,22.66
2019-05-17T14:02:36.148Z,22.42
2019-05-17T14:07:40.185Z,22.22
2019-05-17T14:12:44.292Z,21.06
2019-05-17T14:17:48.316Z,20.89
2019-05-17T14:22:52.387Z,20.64
2019-05-17T14:27:57.134Z,20.50
2019-05-17T14:33:01.704Z,19.68
2019-05-17T14:38:05.687Z,19.92
2019-05-17T14:43:09.745Z,20.31
2019-05-17T14:48:13.843Z,20.97
2019-05-17T14:53:18.222Z,22.31
2019-05-17T14:58:22.367Z,22.85
2019-05-17T15:03:26.518Z,22.65
2019-05-17T15:08:30.651Z,22.47
2019-05-17T15:13:34.674Z,21.57
2019-05-17T15:18:38.791Z,20.30
2019-05-17T15:23:42.831Z,20.46
2019-05-17T15:28:46.969Z,20.08
2019-05-17T15:33:50.965Z,19.90
2019-05-17T15:38:55.046Z,20.46
2019-05-17T15:43:59.123Z,20.58
2019-05-17T15:49:03.428Z,20.16
2019-05-17T15:54:07.593Z,20.15
2019-05-17T15:59:11.983Z,20.01
2019-05-17T16:04:16.081Z,20.21
2019-05-17T16:09:20.567Z,21.26
2019-05-17T16:14:24.618Z,21.09
2019-05-17T16:19:29.204Z,20.46
2019-05-17T16:24:33.189Z,20.24
2019-05-17T16:29:37.212Z,20.75
2019-05-17T16:34:41.212Z,21.90
2019-05-17T16:39:45.253Z,22.20
2019-05-17T16:44:49.448Z,22.26
2019-05-17T16:49:53.477Z,22.09
2019-05-17T16:54:58.174Z,22.24
2019-05-17T17:00:02.325Z,21.78
2019-05-17T17:05:06.404Z,21.29
2019-05-17T17:10:10.522Z,20.78
2019-05-17T17:15:15.258Z,20.29
2019-05-17T17:20:19.731Z,19.90
2019-05-17T17:25:27.821Z,19.62
2019-05-17T17:30:31.984Z,19.57
2019-05-17T17:35:36.051Z,19.35
2019-05-17T17:40:40.424Z,19.10
2019-05-17T17:45:44.878Z,18.90
2019-05-17T17:50:49.317Z,18.69
2019-05-17T17:55:53.346Z,18.56
2019-05-17T18:00:57.446Z,18.37
2019-05-17T18:06:01.613Z,18.26
2019-05-17T18:11:05.975Z,18.07
2019-05-17T18:16:09.997Z,17.82
2019-05-17T18:21:14.799Z,17.63
2019-05-17T18:26:19.219Z,17.45
2019-05-17T18:31:25.454Z,17.21
2019-05-17T18:36:31.785Z,16.95
2019-05-17T18:41:35.827Z,16.72
2019-05-17T18:46:39.925Z,16.54
2019-05-17T18:51:44.004Z,16.30
2019-05-17T18:56:48.103Z,16.08
2019-05-17T19:01:52.162Z,15.91
2019-05-17T19:06:56.367Z,15.79
2019-05-17T19:12:13.053Z,15.77
2019-05-17T19:17:18.601Z,15.71
2019-05-17T19:22:22.761Z,15.56
2019-05-17T19:27:29.190Z,15.37
2019-05-17T19:32:34.225Z,15.19
2019-05-17T19:37:39.064Z,15.20
2019-05-17T19:42:45.021Z,15.15
2019-05-17T19:47:50.693Z,15.03
2019-05-17T19:52:56.729Z,14.90
2019-05-17T19:58:02.365Z,15.04
2019-05-17T20:03:07.841Z,15.14
2019-05-17T20:08:11.982Z,15.21
2019-05-17T20:13:18.130Z,15.23
2019-05-17T20:18:22.193Z,15.09
2019-05-17T20:23:37.628Z,14.90
2019-05-17T20:28:47.964Z,14.77
2019-05-17T20:33:56.350Z,14.56
2019-05-17T20:39:07.461Z,14.52
2019-05-17T20:44:14.887Z,14.46
2019-05-17T20:49:26.896Z,14.40
2019-05-17T20:54:36.701Z,14.34
2019-05-17T20:59:48.532Z,14.17
2019-05-17T21:05:04.090Z,14.27
2019-05-17T21:10:18.136Z,14.28
2019-05-17T21:15:47.526Z,14.29
2019-05-17T21:20:44.816Z,14.24
2019-05-17T21:25:53.099Z,14.38
2019-05-17T21:30:58.818Z,14.41
2019-05-17T21:36:07.228Z,14.27
2019-05-17T21:41:14.116Z,14.12
2019-05-17T21:46:22.473Z,14.01
2019-05-17T21:51:29.472Z,13.87
2019-05-17T21:56:33.570Z,13.67
2019-05-17T22:01:38.284Z,13.53
2019-05-17T22:06:42.613Z,13.46
2019-05-17T22:11:46.673Z,13.33
2019-05-17T22:16:50.706Z,13.25
2019-05-17T22:21:54.709Z,13.18
2019-05-17T22:27:00.388Z,13.03
2019-05-17T22:32:06.253Z,13.04
2019-05-17T22:37:17.353Z,13.03
2019-05-17T22:42:22.906Z,13.16
2019-05-17T22:47:27.552Z,13.21
2019-05-17T22:52:31.623Z,13.13
2019-05-17T22:57:35.735Z,13.13
2019-05-17T23:02:40.217Z,13.13
2019-05-17T23:07:44.234Z,13.17
2019-05-17T23:12:48.255Z,13.24
2019-05-17T23:17:52.412Z,13.10
2019-05-17T23:22:56.808Z,12.82
2019-05-17T23:28:01.180Z,12.61
2019-05-17T23:33:05.196Z,12.54
2019-05-17T23:38:09.265Z,12.43
2019-05-17T23:43:13.320Z,12.30
2019-05-17T23:48:17.314Z,12.14
2019-05-17T23:53:21.369Z,11.93
2019-05-17T23:58:25.418Z,11.86
